createdAt,value
2023-03-18T00:01:01.231Z,62892.52
2023-03-18T00:02:03.845Z,62897.71
2023-03-18T00:03:06.469Z,62886.79
2023-03-18T00:04:08.667Z,62892.52
2023-03-18T00:05:11.775Z,62886.52
2023-03-18T00:06:16.645Z,62891.43
2023-03-18T00:07:18.709Z,62892.95
2023-03-18T00:08:20.840Z,62885.86
2023-03-18T00:09:23.601Z,62893.06
2023-03-18T00:10:25.598Z,62886.40
2023-03-18T00:11:27.594Z,62894.58
2023-03-18T00:12:29.711Z,62892.52
2023-03-18T00:13:33.537Z,62896.75
2023-03-18T00:14:37.204Z,62905.34
2023-03-18T00:15:39.534Z,62900.14
2023-03-18T00:16:41.778Z,62881.07
2023-03-18T00:17:44.267Z,62888.16
2023-03-18T00:18:46.671Z,62867.45
2023-03-18T00:19:48.795Z,62875.09
2023-03-18T00:20:51.001Z,62873.45
2023-03-18T00:21:52.968Z,62875.63
2023-03-18T00:22:55.291Z,62884.88
2023-03-18T00:23:58.031Z,62885.73
2023-03-18T00:25:00.119Z,62888.16
2023-03-18T00:26:02.840Z,62887.08
2023-03-18T00:27:05.082Z,62888.83
2023-03-18T00:28:09.401Z,62866.63
2023-03-18T00:29:11.525Z,62884.88
2023-03-18T00:30:14.224Z,62875.49
2023-03-18T00:31:18.268Z,62877.80
2023-03-18T00:32:20.239Z,62871.82
2023-03-18T00:33:22.462Z,62878.90
2023-03-18T00:34:25.523Z,62877.68
2023-03-18T00:35:28.049Z,62877.13
2023-03-18T00:36:31.166Z,62868.12
2023-03-18T00:37:33.370Z,62883.27
2023-03-18T00:38:36.537Z,62865.41
2023-03-18T00:39:38.436Z,62878.64
2023-03-18T00:40:42.042Z,62871.82
2023-03-18T00:41:43.912Z,62877.01
2023-03-18T00:42:46.677Z,62874.67
2023-03-18T00:43:49.184Z,62871.82
2023-03-18T00:44:51.178Z,62876.73
2023-03-18T00:45:53.039Z,62869.76
2023-03-18T00:46:55.203Z,62876.17
2023-03-18T00:47:57.210Z,62878.36
2023-03-18T00:49:01.386Z,62872.24
2023-03-18T00:50:05.042Z,62862.00
2023-03-18T00:51:06.924Z,62861.87
2023-03-18T00:52:09.105Z,62870.61
2023-03-18T00:53:10.980Z,62863.10
2023-03-18T00:54:14.126Z,62877.01
2023-03-18T00:55:16.220Z,62867.87
2023-03-18T00:56:20.071Z,62858.73
2023-03-18T00:57:22.210Z,62869.79
2023-03-18T00:58:25.185Z,62871.40
2023-03-18T00:59:27.175Z,62859.83
2023-03-18T01:00:30.140Z,62839.54
2023-03-18T01:01:33.387Z,62853.97
2023-03-18T01:02:35.264Z,62852.75
2023-03-18T01:03:37.330Z,62855.46
2023-03-18T01:04:39.328Z,62859.95
2023-03-18T01:05:41.672Z,62850.02
2023-03-18T01:06:43.659Z,62861.33
2023-03-18T01:07:46.945Z,62850.98
2023-03-18T01:08:50.070Z,62860.37
2023-03-18T01:09:52.294Z,62862.55
2023-03-18T01:10:54.524Z,62860.37
2023-03-18T01:11:56.408Z,62863.10
2023-03-18T01:12:58.300Z,62860.91
2023-03-18T01:14:00.754Z,62858.73
2023-03-18T01:15:03.635Z,62855.89
2023-03-18T01:16:07.505Z,62857.36
2023-03-18T01:17:10.102Z,62854.39
2023-03-18T01:18:12.049Z,62860.23
2023-03-18T01:19:14.405Z,62853.97
2023-03-18T01:20:18.867Z,62841.84
2023-03-18T01:21:21.265Z,62850.56
2023-03-18T01:22:23.160Z,62851.12
2023-03-18T01:23:25.375Z,62856.98
2023-03-18T01:24:27.953Z,62859.27
2023-03-18T01:25:30.239Z,62847.85
2023-03-18T01:26:32.617Z,62850.70
2023-03-18T01:27:35.318Z,62857.24
2023-03-18T01:28:37.644Z,62858.20
2023-03-18T01:29:39.659Z,62857.24
2023-03-18T01:30:42.681Z,62862.68
2023-03-18T01:31:44.725Z,62846.21
2023-03-18T01:32:46.789Z,62840.89
2023-03-18T01:33:48.899Z,62850.44
2023-03-18T01:34:50.871Z,62855.89
2023-03-18T01:35:56.224Z,62843.76
2023-03-18T01:36:58.808Z,62847.85
2023-03-18T01:39:03.171Z,62842.80
2023-03-18T01:40:08.325Z,62826.47
2023-03-18T01:41:11.547Z,62834.23
2023-03-18T01:42:14.629Z,62828.90
2023-03-18T01:43:21.590Z,62823.32
2023-03-18T01:44:24.255Z,62821.01
2023-03-18T01:45:30.565Z,62821.15
2023-03-18T01:46:39.113Z,62826.47
2023-03-18T01:47:41.641Z,62833.67
2023-03-18T01:48:43.921Z,62805.08
2023-03-18T01:49:48.880Z,62810.13
2023-03-18T01:50:57.994Z,62820.61
2023-03-18T01:52:15.760Z,62808.35
2023-03-18T01:53:20.342Z,62810.80
2023-03-18T01:54:25.107Z,62810.13
2023-03-18T01:55:29.946Z,62805.36
2023-03-18T01:56:34.865Z,62795.97
2023-03-18T01:57:39.504Z,62801.00
2023-03-18T01:58:45.004Z,62813.93
2023-03-18T01:59:50.149Z,62798.68
2023-03-18T02:00:55.965Z,62796.65
2023-03-18T02:02:10.641Z,62794.88
2023-03-18T02:03:12.573Z,62791.19
2023-03-18T02:04:16.075Z,62795.55
2023-03-18T02:05:21.607Z,62813.82
2023-03-18T02:06:26.764Z,62815.99
2023-03-18T02:07:31.620Z,62794.88
2023-03-18T02:08:37.221Z,62796.09
2023-03-18T02:09:39.414Z,62812.30
2023-03-18T02:10:42.342Z,62803.05
2023-03-18T02:11:47.004Z,62807.00
2023-03-18T02:12:55.791Z,62804.27
2023-03-18T02:13:59.913Z,62800.46
2023-03-18T02:15:05.713Z,62813.82
2023-03-18T02:17:29.319Z,62809.43
2023-03-18T02:18:34.716Z,62810.80
2023-03-18T02:19:40.429Z,62823.61
2023-03-18T02:21:14.710Z,62815.15
2023-03-18T02:22:35.891Z,62813.54
2023-03-18T02:24:09.195Z,62825.24
2023-03-18T02:25:20.568Z,62828.65
2023-03-18T02:26:26.452Z,62816.25
2023-03-18T02:27:32.162Z,62826.87
2023-03-18T02:28:36.719Z,62830.70
2023-03-18T02:29:41.249Z,62833.67
2023-03-18T02:30:46.707Z,62826.05
2023-03-18T02:31:49.793Z,62820.19
2023-03-18T02:32:54.437Z,62827.01
2023-03-18T02:33:58.183Z,62829.19
2023-03-18T02:35:03.853Z,62827.15
2023-03-18T02:36:15.605Z,62830.40
2023-03-18T02:37:17.538Z,62825.38
2023-03-18T02:38:20.910Z,62833.55
2023-03-18T02:39:23.158Z,62824.96
2023-03-18T02:40:29.195Z,62822.79
2023-03-18T02:41:34.942Z,62827.69
2023-03-18T02:42:37.019Z,62840.09
2023-03-18T02:43:39.084Z,62832.04
2023-03-18T02:44:44.315Z,62827.15
2023-03-18T02:45:55.864Z,62833.67
2023-03-18T02:47:07.795Z,62815.15
2023-03-18T02:48:13.970Z,62823.21
2023-03-18T02:49:18.237Z,62814.07
2023-03-18T02:50:20.533Z,62825.38
2023-03-18T02:51:23.167Z,62810.80
2023-03-18T02:52:25.062Z,62820.61
2023-03-18T02:53:27.180Z,62809.71
2023-03-18T02:54:31.013Z,62819.52
2023-03-18T02:55:32.959Z,62805.36
2023-03-18T02:56:37.359Z,62811.48
2023-03-18T02:57:39.320Z,62828.11
2023-03-18T02:58:42.584Z,62828.11
2023-03-18T02:59:44.487Z,62825.91
2023-03-18T03:00:46.873Z,62830.96
2023-03-18T03:01:52.810Z,62825.80
2023-03-18T03:02:56.451Z,62817.60
2023-03-18T03:03:59.482Z,62827.15
2023-03-18T03:05:01.625Z,62829.32
2023-03-18T03:06:06.515Z,62824.42
2023-03-18T03:07:08.769Z,62828.77
2023-03-18T03:08:11.390Z,62824.42
2023-03-18T03:09:15.696Z,62835.05
2023-03-18T03:10:18.801Z,62803.73
2023-03-18T03:11:21.724Z,62823.88
2023-03-18T03:12:23.861Z,62809.17
2023-03-18T03:13:26.683Z,62816.66
2023-03-18T03:14:28.682Z,62819.52
2023-03-18T03:15:30.620Z,62822.53
2023-03-18T03:16:32.769Z,62810.13
2023-03-18T03:17:36.371Z,62815.57
2023-03-18T03:18:38.679Z,62822.11
2023-03-18T03:19:41.335Z,62817.88
2023-03-18T03:20:44.319Z,62810.80
2023-03-18T03:21:46.248Z,62819.52
2023-03-18T03:22:48.465Z,62809.71
2023-03-18T03:23:50.729Z,62799.36
2023-03-18T03:24:53.842Z,62809.03
2023-03-18T03:25:55.856Z,62810.66
2023-03-18T03:26:58.085Z,62801.13
2023-03-18T03:28:01.116Z,62814.75
2023-03-18T03:29:05.044Z,62807.95
2023-03-18T03:30:10.148Z,62817.62
2023-03-18T03:31:12.307Z,62815.15
2023-03-18T03:32:14.674Z,62818.98
2023-03-18T03:33:16.696Z,62803.17
2023-03-18T03:34:18.564Z,62809.31
2023-03-18T03:35:21.726Z,62812.98
2023-03-18T03:36:24.113Z,62817.46
2023-03-18T03:37:26.320Z,62797.19
2023-03-18T03:38:28.218Z,62802.09
2023-03-18T03:39:30.108Z,62788.60
2023-03-18T03:40:33.368Z,62801.13
2023-03-18T03:41:35.889Z,62806.86
2023-03-18T03:42:39.003Z,62816.66
2023-03-18T03:43:42.074Z,62810.80
2023-03-18T03:44:45.165Z,62806.44
2023-03-18T03:45:47.047Z,62801.54
2023-03-18T03:46:49.808Z,62807.54
2023-03-18T03:47:52.230Z,62814.75
2023-03-18T03:48:55.330Z,62812.30
2023-03-18T03:49:57.316Z,62810.55
2023-03-18T03:51:01.374Z,62802.63
2023-03-18T03:52:04.718Z,62812.98
2023-03-18T03:53:06.925Z,62817.34
2023-03-18T03:54:10.955Z,62820.05
2023-03-18T03:55:16.072Z,62820.75
2023-03-18T03:56:18.925Z,62816.25
2023-03-18T03:57:21.762Z,62798.82
2023-03-18T03:58:24.432Z,62804.68
2023-03-18T03:59:26.351Z,62806.44
2023-03-18T04:00:28.930Z,62798.29
2023-03-18T04:01:31.104Z,62816.13
2023-03-18T04:02:33.497Z,62806.86
2023-03-18T04:03:36.994Z,62810.66
2023-03-18T04:04:39.688Z,62810.80
2023-03-18T04:05:41.701Z,62807.11
2023-03-18T04:06:43.858Z,62811.62
2023-03-18T04:07:47.867Z,62814.07
2023-03-18T04:08:49.896Z,62817.34
2023-03-18T04:09:52.610Z,62810.27
2023-03-18T04:10:55.676Z,62807.54
2023-03-18T04:11:57.597Z,62812.02
2023-03-18T04:12:59.776Z,62822.11
2023-03-18T04:14:01.698Z,62822.79
2023-03-18T04:15:05.286Z,62820.47
2023-03-18T04:16:07.696Z,62815.82
2023-03-18T04:17:09.649Z,62829.19
2023-03-18T04:18:11.672Z,62822.25
2023-03-18T04:19:14.139Z,62823.32
2023-03-18T04:20:17.467Z,62818.02
2023-03-18T04:21:19.403Z,62808.63
2023-03-18T04:22:21.229Z,62822.11
2023-03-18T04:23:23.366Z,62818.98
2023-03-18T04:24:25.237Z,62800.04
2023-03-18T04:25:27.322Z,62806.86
2023-03-18T04:26:29.941Z,62821.57
2023-03-18T04:27:32.797Z,62814.75
2023-03-18T04:28:34.960Z,62816.38
2023-03-18T04:29:37.361Z,62824.84
2023-03-18T04:30:39.918Z,62824.28
2023-03-18T04:31:42.483Z,62825.91
2023-03-18T04:32:44.570Z,62809.71
2023-03-18T04:33:46.615Z,62815.15
2023-03-18T04:34:49.334Z,62818.30
2023-03-18T04:35:51.247Z,62815.82
2023-03-18T04:36:53.901Z,62807.54
2023-03-18T04:37:56.241Z,62815.71
2023-03-18T04:38:58.128Z,62825.91
2023-03-18T04:40:00.629Z,62812.98
2023-03-18T04:41:04.466Z,62808.63
2023-03-18T04:42:07.460Z,62805.76
2023-03-18T04:43:09.394Z,62809.45
2023-03-18T04:44:11.258Z,62805.22
2023-03-18T04:45:14.680Z,62807.82
2023-03-18T04:46:17.180Z,62810.27
2023-03-18T04:47:19.084Z,62816.53
2023-03-18T04:48:21.142Z,62819.52
2023-03-18T04:49:23.181Z,62816.78
2023-03-18T04:50:25.268Z,62821.43
2023-03-18T04:51:27.163Z,62823.88
2023-03-18T04:52:30.145Z,62818.84
2023-03-18T04:53:32.146Z,62822.64
2023-03-18T04:54:34.275Z,62811.90
2023-03-18T04:55:37.379Z,62825.80
2023-03-18T04:56:39.348Z,62828.23
2023-03-18T04:57:42.283Z,62804.27
2023-03-18T04:58:44.725Z,62817.88
2023-03-18T04:59:46.737Z,62820.05
2023-03-18T05:00:49.007Z,62826.05
2023-03-18T05:01:52.003Z,62816.25
2023-03-18T05:02:54.882Z,62822.79
2023-03-18T05:03:58.895Z,62827.97
2023-03-18T05:05:01.467Z,62811.34
2023-03-18T05:06:03.980Z,62811.90
2023-03-18T05:07:06.012Z,62815.15
2023-03-18T05:08:07.926Z,62814.49
2023-03-18T05:09:10.008Z,62825.52
2023-03-18T05:10:12.684Z,62821.69
2023-03-18T05:11:14.917Z,62828.23
2023-03-18T05:12:16.801Z,62844.58
2023-03-18T05:13:18.938Z,62837.61
2023-03-18T05:14:20.828Z,62840.21
2023-03-18T05:15:22.887Z,62849.34
2023-03-18T05:16:24.984Z,62845.40
2023-03-18T05:17:27.335Z,62845.40
2023-03-18T05:18:29.515Z,62854.39
2023-03-18T05:19:31.469Z,62851.52
2023-03-18T05:20:34.004Z,62854.67
2023-03-18T05:21:36.145Z,62854.67
2023-03-18T05:22:38.478Z,62849.60
2023-03-18T05:23:40.738Z,62835.19
2023-03-18T05:24:43.878Z,62847.17
2023-03-18T05:25:48.147Z,62845.12
2023-03-18T05:26:50.238Z,62840.77
2023-03-18T05:27:53.224Z,62850.44
2023-03-18T05:28:55.323Z,62861.33
2023-03-18T05:29:57.515Z,62865.56
2023-03-18T05:30:59.793Z,62846.07
2023-03-18T05:32:01.917Z,62852.62
2023-03-18T05:33:05.209Z,62856.56
2023-03-18T05:34:08.814Z,62841.98
2023-03-18T05:35:11.497Z,62856.56
2023-03-18T05:36:14.527Z,62850.02
2023-03-18T05:37:18.533Z,62838.46
2023-03-18T05:38:21.046Z,62844.02
2023-03-18T05:39:23.083Z,62836.66
2023-03-18T05:40:25.172Z,62843.90
2023-03-18T05:41:27.080Z,62848.67
2023-03-18T05:42:30.237Z,62851.12
2023-03-18T05:43:32.368Z,62842.52
2023-03-18T05:44:34.799Z,62850.70
2023-03-18T05:45:40.065Z,62857.38
2023-03-18T05:46:44.117Z,62845.25
2023-03-18T05:47:46.208Z,62853.04
2023-03-18T05:48:48.072Z,62834.63
2023-03-18T05:49:50.099Z,62831.36
2023-03-18T05:50:53.305Z,62819.52
2023-03-18T05:51:55.417Z,62808.89
2023-03-18T05:52:58.189Z,62838.04
2023-03-18T05:54:00.254Z,62829.86
2023-03-18T05:55:02.764Z,62841.31
2023-03-18T05:56:05.841Z,62849.48
2023-03-18T05:57:08.053Z,62846.21
2023-03-18T05:58:10.221Z,62841.84
2023-03-18T05:59:13.958Z,62836.94
2023-03-18T06:00:17.389Z,62840.21
2023-03-18T06:01:19.580Z,62836.94
2023-03-18T06:02:21.634Z,62839.67
2023-03-18T06:03:24.981Z,62851.52
2023-03-18T06:04:27.402Z,62841.31
2023-03-18T06:05:30.067Z,62848.92
2023-03-18T06:06:34.965Z,62864.18
2023-03-18T06:07:38.037Z,62869.51
2023-03-18T06:08:39.966Z,62855.04
2023-03-18T06:09:41.944Z,62867.20
2023-03-18T06:10:43.948Z,62850.02
2023-03-18T06:11:46.815Z,62853.71
2023-03-18T06:12:49.517Z,62856.56
2023-03-18T06:13:51.834Z,62857.64
2023-03-18T06:14:54.727Z,62861.87
2023-03-18T06:15:58.378Z,62865.82
2023-03-18T06:17:01.199Z,62869.64
2023-03-18T06:18:04.257Z,62863.22
2023-03-18T06:19:07.080Z,62896.22
2023-03-18T06:20:11.670Z,62892.39
2023-03-18T06:21:13.997Z,62902.09
2023-03-18T06:22:16.465Z,62903.42
2023-03-18T06:23:19.507Z,62907.79
2023-03-18T06:24:21.553Z,62918.14
2023-03-18T06:25:23.827Z,62913.23
2023-03-18T06:26:26.856Z,62905.19
2023-03-18T06:27:29.259Z,62921.70
2023-03-18T06:28:31.121Z,62916.37
2023-03-18T06:29:33.116Z,62904.52
2023-03-18T06:30:35.105Z,62895.66
2023-03-18T06:31:36.993Z,62897.97
2023-03-18T06:32:39.625Z,62912.70
2023-03-18T06:33:41.701Z,62924.97
2023-03-18T06:34:43.682Z,62915.29
2023-03-18T06:35:47.813Z,62913.23
2023-03-18T06:36:52.457Z,62915.97
2023-03-18T06:37:54.380Z,62918.28
2023-03-18T06:38:56.761Z,62915.97
2023-03-18T06:39:58.770Z,62927.82
2023-03-18T06:41:01.420Z,62909.42
2023-03-18T06:42:03.532Z,62908.32
2023-03-18T06:43:05.625Z,62904.77
2023-03-18T06:44:07.493Z,62918.28
2023-03-18T06:45:10.762Z,62934.23
2023-03-18T06:46:13.602Z,62932.31
2023-03-18T06:47:17.885Z,62928.92
2023-03-18T06:48:20.408Z,62929.21
2023-03-18T06:49:22.893Z,62912.14
2023-03-18T06:50:24.886Z,62912.14
2023-03-18T06:51:27.170Z,62908.32
2023-03-18T06:52:29.860Z,62903.55
2023-03-18T06:53:31.808Z,62906.69
2023-03-18T06:54:33.705Z,62916.37
2023-03-18T06:55:36.236Z,62914.87
2023-03-18T06:56:38.229Z,62913.23
2023-03-18T06:57:40.451Z,62919.78
2023-03-18T06:58:45.414Z,62912.70
2023-03-18T06:59:47.755Z,62918.00
2023-03-18T07:00:50.193Z,62911.60
2023-03-18T07:01:53.330Z,62917.61
2023-03-18T07:02:55.527Z,62917.61
2023-03-18T07:03:58.090Z,62904.09
2023-03-18T07:05:00.293Z,62913.23
2023-03-18T07:06:02.964Z,62921.84
2023-03-18T07:07:08.194Z,62919.52
2023-03-18T07:08:11.237Z,62913.12
2023-03-18T07:09:14.933Z,62911.60
2023-03-18T07:11:32.937Z,62903.69
2023-03-18T07:12:35.453Z,62908.88
2023-03-18T07:13:38.859Z,62906.69
2023-03-18T07:14:41.019Z,62914.33
2023-03-18T07:15:44.402Z,62920.87
2023-03-18T07:16:46.848Z,62915.97
2023-03-18T07:17:50.333Z,62915.41
2023-03-18T07:18:52.279Z,62903.98
2023-03-18T07:19:54.319Z,62914.33
2023-03-18T07:20:56.443Z,62903.98
2023-03-18T07:21:59.283Z,62916.08
2023-03-18T07:23:01.406Z,62924.55
2023-03-18T07:24:05.084Z,62927.29
2023-03-18T07:25:07.880Z,62924.27
2023-03-18T07:26:10.785Z,62931.77
2023-03-18T07:27:12.947Z,62923.73
2023-03-18T07:28:14.994Z,62932.20
2023-03-18T07:29:17.588Z,62936.14
2023-03-18T07:30:19.898Z,62948.81
2023-03-18T07:31:21.931Z,62954.12
2023-03-18T07:32:23.920Z,62960.00
2023-03-18T07:33:25.996Z,62963.41
2023-03-18T07:34:27.938Z,62949.21
2023-03-18T07:35:29.970Z,62929.60
2023-03-18T07:36:32.241Z,62928.07
2023-03-18T07:37:34.207Z,62947.58
2023-03-18T07:38:36.342Z,62950.73
2023-03-18T07:39:38.204Z,62952.37
2023-03-18T07:40:41.220Z,62958.50
2023-03-18T07:41:43.103Z,62951.41
2023-03-18T07:42:45.012Z,62969.14
2023-03-18T07:43:46.870Z,62968.30
2023-03-18T07:44:48.878Z,62978.96
2023-03-18T07:45:50.913Z,62978.00
2023-03-18T07:46:53.111Z,62966.26
2023-03-18T07:47:55.168Z,62966.26
2023-03-18T07:48:57.044Z,62980.86
2023-03-18T07:49:59.011Z,62984.13
2023-03-18T07:51:02.011Z,62990.68
2023-03-18T07:52:04.384Z,63000.91
2023-03-18T07:53:06.900Z,62984.80
2023-03-18T07:54:09.765Z,63010.31
2023-03-18T07:55:12.397Z,63000.48
2023-03-18T07:56:14.988Z,63005.39
2023-03-18T07:57:18.141Z,63014.43
2023-03-18T07:58:20.427Z,63014.26
2023-03-18T07:59:22.617Z,63013.45
2023-03-18T08:00:24.946Z,63032.68
2023-03-18T08:01:27.126Z,63030.50
2023-03-18T08:02:29.009Z,63030.50
2023-03-18T08:03:31.589Z,63028.86
2023-03-18T08:04:34.134Z,63031.31
2023-03-18T08:05:36.396Z,63025.16
2023-03-18T08:06:38.392Z,63025.72
2023-03-18T08:07:40.383Z,63032.14
2023-03-18T08:08:42.876Z,63031.04
2023-03-18T08:09:44.838Z,63044.28
2023-03-18T08:10:46.902Z,63041.29
2023-03-18T08:11:49.246Z,63049.17
2023-03-18T08:12:53.813Z,63017.28
2023-03-18T08:13:55.896Z,63024.08
2023-03-18T08:14:57.792Z,63031.04
2023-03-18T08:16:00.369Z,63037.59
2023-03-18T08:17:03.123Z,63031.04
2023-03-18T08:18:08.781Z,63036.09
2023-03-18T08:19:10.350Z,63033.78
2023-03-18T08:20:14.689Z,63027.76
2023-03-18T08:21:17.070Z,63050.45
2023-03-18T08:22:19.608Z,63060.93
2023-03-18T08:23:22.878Z,63061.74
2023-03-18T08:24:25.042Z,63046.32
2023-03-18T08:25:27.018Z,63013.29
2023-03-18T08:26:29.016Z,63034.32
2023-03-18T08:27:32.129Z,63040.19
2023-03-18T08:28:34.285Z,63033.23
2023-03-18T08:29:36.285Z,63047.42
2023-03-18T08:30:39.239Z,63053.97
2023-03-18T08:31:41.650Z,63065.98
2023-03-18T08:32:44.529Z,63060.64
2023-03-18T08:33:47.783Z,63079.74
2023-03-18T08:34:49.718Z,63024.91
2023-03-18T08:35:52.654Z,63080.71
2023-03-18T08:36:54.626Z,63086.05
2023-03-18T08:37:56.537Z,63075.81
2023-03-18T08:38:59.367Z,63063.24
2023-03-18T08:40:01.806Z,63072.65
2023-03-18T08:41:04.025Z,63065.98
2023-03-18T08:42:06.856Z,63053.55
2023-03-18T08:43:10.333Z,63067.62
2023-03-18T08:44:12.431Z,63084.12
2023-03-18T08:45:14.939Z,63083.98
2023-03-18T08:46:18.433Z,63070.89
2023-03-18T08:47:20.584Z,63067.06
2023-03-18T08:48:23.791Z,63065.98
2023-03-18T08:49:25.856Z,63062.28
2023-03-18T08:50:28.078Z,63055.05
2023-03-18T08:51:30.765Z,63074.71
2023-03-18T08:52:32.651Z,63089.46
2023-03-18T08:53:34.996Z,63080.71
2023-03-18T08:54:36.890Z,63062.95
2023-03-18T08:55:38.831Z,63062.03
2023-03-18T08:56:40.855Z,63053.97
2023-03-18T08:57:43.043Z,63056.69
2023-03-18T08:58:45.156Z,63064.34
2023-03-18T08:59:47.436Z,63064.88
2023-03-18T09:00:49.615Z,63058.33
2023-03-18T09:01:51.520Z,63064.34
2023-03-18T09:02:53.905Z,63057.79
2023-03-18T09:03:55.857Z,63063.92
2023-03-18T09:04:57.891Z,63051.77
2023-03-18T09:06:00.286Z,63048.92
2023-03-18T09:07:02.828Z,63039.90
2023-03-18T09:08:05.682Z,63059.58
2023-03-18T09:09:08.481Z,63053.68
2023-03-18T09:10:13.732Z,63047.67
2023-03-18T09:11:17.387Z,63033.64
2023-03-18T09:12:19.331Z,63045.36
2023-03-18T09:13:22.326Z,63053.68
2023-03-18T09:14:24.234Z,63048.21
2023-03-18T09:15:26.263Z,63057.36
2023-03-18T09:16:28.266Z,63074.29
2023-03-18T09:17:45.251Z,63059.43
2023-03-18T09:18:34.984Z,63068.16
2023-03-18T09:19:36.934Z,63056.15
2023-03-18T09:20:40.758Z,63067.62
2023-03-18T09:21:42.672Z,63057.25
2023-03-18T09:22:46.581Z,63057.25
2023-03-18T09:23:48.531Z,63063.54
2023-03-18T09:24:50.489Z,63045.24
2023-03-18T09:25:52.600Z,63040.19
2023-03-18T09:26:57.511Z,63048.21
2023-03-18T09:28:00.012Z,63062.70
2023-03-18T09:29:01.900Z,63068.58
2023-03-18T09:30:06.902Z,63068.16
2023-03-18T09:31:09.090Z,63074.58
2023-03-18T09:32:11.009Z,63057.25
2023-03-18T09:33:13.090Z,63035.95
2023-03-18T09:34:15.066Z,63049.60
2023-03-18T09:35:16.938Z,63064.21
2023-03-18T09:36:18.981Z,63056.15
2023-03-18T09:37:21.452Z,63058.60
2023-03-18T09:38:23.798Z,63056.15
2023-03-18T09:39:25.691Z,63054.51
2023-03-18T09:40:30.812Z,63049.60
2023-03-18T09:41:58.444Z,63039.11
2023-03-18T09:43:25.627Z,63023.95
2023-03-18T09:44:33.296Z,63038.80
2023-03-18T09:45:39.083Z,63029.96
2023-03-18T09:47:10.831Z,63043.72
2023-03-18T09:48:36.184Z,63059.96
2023-03-18T09:49:50.791Z,63058.33
2023-03-18T09:51:11.203Z,63059.00
2023-03-18T09:52:16.840Z,63068.70
2023-03-18T09:53:42.449Z,63048.92
2023-03-18T09:54:57.351Z,63052.34
2023-03-18T09:56:02.114Z,63051.23
2023-03-18T09:57:07.195Z,63069.26
2023-03-18T09:59:38.299Z,63058.04
2023-03-18T10:00:41.941Z,63067.73
2023-03-18T10:01:48.632Z,63081.27
2023-03-18T10:02:54.313Z,63080.17
2023-03-18T10:04:11.849Z,63063.80
2023-03-18T10:05:36.240Z,63064.46
2023-03-18T10:06:42.369Z,63071.01
2023-03-18T10:07:48.897Z,63057.25
2023-03-18T10:09:16.549Z,63073.61
2023-03-18T10:10:25.519Z,63080.17
2023-03-18T10:11:37.347Z,63075.81
2023-03-18T10:12:45.788Z,63078.11
2023-03-18T10:14:00.754Z,63089.75
2023-03-18T10:15:18.719Z,63085.22
2023-03-18T10:16:24.586Z,63102.98
2023-03-18T10:17:33.778Z,63098.06
2023-03-18T10:18:39.055Z,63106.39
2023-03-18T10:19:47.455Z,63102.44
2023-03-18T10:20:59.302Z,63097.09
2023-03-18T10:22:04.998Z,63110.07
2023-03-18T10:23:26.428Z,63085.22
2023-03-18T10:24:44.409Z,63096.13
2023-03-18T10:27:11.083Z,63109.65
2023-03-18T10:28:48.894Z,63063.49
2023-03-18T10:30:03.621Z,63086.72
2023-03-18T10:31:24.124Z,63094.92
2023-03-18T10:32:48.664Z,63105.40
2023-03-18T10:33:43.111Z,63111.17
2023-03-18T10:35:05.629Z,63117.30
2023-03-18T10:36:23.160Z,63123.30
2023-03-18T10:37:38.170Z,63133.27
2023-03-18T10:38:52.243Z,63125.61
2023-03-18T10:39:55.180Z,63121.37
2023-03-18T10:40:58.649Z,63133.14
2023-03-18T10:42:04.368Z,63112.93
2023-03-18T10:44:35.050Z,63116.20
2023-03-18T10:45:37.432Z,63113.60
2023-03-18T10:46:41.355Z,63123.86
2023-03-18T10:47:52.947Z,63104.86
2023-03-18T10:49:08.127Z,63112.63
2023-03-18T10:50:20.263Z,63122.76
2023-03-18T10:51:37.946Z,63116.20
2023-03-18T10:52:46.727Z,63115.91
2023-03-18T10:54:09.086Z,63139.16
2023-03-18T10:55:15.240Z,63135.34
2023-03-18T10:56:18.053Z,63124.27
2023-03-18T10:57:21.292Z,63143.00
2023-03-18T10:58:23.327Z,63140.25
2023-03-18T10:59:27.577Z,63150.09
2023-03-18T11:00:34.781Z,63160.47
2023-03-18T11:01:39.115Z,63155.55
2023-03-18T11:02:41.948Z,63159.64
2023-03-18T11:03:50.563Z,63161.03
2023-03-18T11:05:26.840Z,63168.54
2023-03-18T11:06:59.353Z,63149.55
2023-03-18T11:08:06.796Z,63157.75
2023-03-18T11:09:12.239Z,63152.54
2023-03-18T11:10:18.126Z,63162.24
2023-03-18T11:11:29.904Z,63159.93
2023-03-18T11:12:31.880Z,63178.94
2023-03-18T11:13:33.796Z,63176.02
2023-03-18T11:14:36.587Z,63171.28
2023-03-18T11:15:42.263Z,63183.00
2023-03-18T11:17:00.301Z,63174.80
2023-03-18T11:18:03.164Z,63191.61
2023-03-18T11:19:08.727Z,63195.99
2023-03-18T11:20:23.997Z,63184.11
2023-03-18T11:21:27.299Z,63162.67
2023-03-18T11:22:30.192Z,63192.71
2023-03-18T11:23:35.401Z,63197.77
2023-03-18T11:24:38.528Z,63205.41
2023-03-18T11:25:44.174Z,63206.08
2023-03-18T11:26:50.175Z,63168.37
2023-03-18T11:27:58.941Z,63195.32
2023-03-18T11:29:13.443Z,63184.11
2023-03-18T11:30:33.937Z,63190.29
2023-03-18T11:31:30.281Z,63210.76
2023-03-18T11:32:34.522Z,63213.61
2023-03-18T11:33:36.569Z,63215.92
2023-03-18T11:34:38.447Z,63211.97
2023-03-18T11:35:46.865Z,63205.84
2023-03-18T11:36:55.092Z,63211.84
2023-03-18T11:38:00.791Z,63221.01
2023-03-18T11:39:05.621Z,63221.57
2023-03-18T11:40:17.867Z,63222.89
2023-03-18T11:41:24.271Z,63211.97
2023-03-18T11:42:26.182Z,63213.07
2023-03-18T11:43:28.081Z,63224.42
2023-03-18T11:44:32.744Z,63228.24
2023-03-18T11:45:56.137Z,63221.14
2023-03-18T11:47:13.793Z,63236.69
2023-03-18T11:48:26.764Z,63228.24
2023-03-18T11:49:30.143Z,63234.25
2023-03-18T11:50:41.736Z,63221.52
2023-03-18T11:51:47.412Z,63239.17
2023-03-18T11:53:04.963Z,63240.27
2023-03-18T11:54:19.720Z,63260.93
2023-03-18T11:55:43.453Z,63250.79
2023-03-18T11:58:35.375Z,63268.82
2023-03-18T11:59:57.803Z,63247.08
2023-03-18T12:01:13.372Z,63260.75
2023-03-18T12:02:54.389Z,63299.88
2023-03-18T12:04:17.006Z,63288.95
2023-03-18T12:05:44.294Z,63293.45
2023-03-18T12:06:50.067Z,63304.92
2023-03-18T12:07:58.534Z,63296.73
2023-03-18T12:09:24.000Z,63298.37
2023-03-18T12:10:29.870Z,63291.91
2023-03-18T12:12:10.467Z,63318.73
2023-03-18T12:13:21.903Z,63322.31
2023-03-18T12:14:48.516Z,63321.34
2023-03-18T12:16:06.463Z,63319.16
2023-03-18T12:17:35.842Z,63314.77
2023-03-18T12:18:53.456Z,63316.30
2023-03-18T12:20:14.655Z,63322.98
2023-03-18T12:21:51.746Z,63319.27
2023-03-18T12:23:05.499Z,63322.98
2023-03-18T12:24:23.686Z,63302.87
2023-03-18T12:25:49.014Z,63317.92
2023-03-18T12:26:57.310Z,63296.84
2023-03-18T12:28:14.895Z,63306.69
2023-03-18T12:29:29.608Z,63306.69
2023-03-18T12:30:47.674Z,63326.37
2023-03-18T12:31:53.463Z,63345.54
2023-03-18T12:33:05.467Z,63349.80
2023-03-18T12:35:49.938Z,63355.38
2023-03-18T12:36:58.445Z,63371.68
2023-03-18T12:38:09.952Z,63371.68
2023-03-18T12:39:24.528Z,63377.58
2023-03-18T12:40:30.809Z,63362.92
2023-03-18T12:41:39.825Z,63360.20
2023-03-18T12:42:57.691Z,63361.95
2023-03-18T12:44:06.087Z,63385.49
2023-03-18T12:45:11.564Z,63367.55
2023-03-18T12:46:35.720Z,63369.62
2023-03-18T12:47:47.704Z,63369.49
2023-03-18T12:48:53.408Z,63369.49
2023-03-18T12:50:07.998Z,63374.29
2023-03-18T12:51:16.475Z,63363.05
2023-03-18T12:52:22.395Z,63363.05
2023-03-18T12:53:30.976Z,63359.23
2023-03-18T12:54:42.439Z,63359.23
2023-03-18T12:55:49.366Z,63345.41